Time;durP1;ratioP1;P1;durP2;ratioP2;P2;SDS_P1;SDS_P2;PMS_P1;PMS_P2;Temp;Humidity;BMP_temperature;BMP_pressure;BME280_temperature;BME280_humidity;BME280_pressure;Samples;Min_cycle;Max_cycle;Signal;HPM_P1;HPM_P2
2021/12/25 00:00:21;;;;;;;20.90;16.00;;;;;;;3.54;84.32;96334.54;108340;1273;58961;-73
2021/12/25 00:03:05;;;;;;;36.80;24.90;;;;;;;3.53;84.14;96336.33;108262;1274;58961;-71
2021/12/25 00:05:36;;;;;;;38.20;27.90;;;;;;;3.51;84.12;96338.51;108326;1273;70663;-73
2021/12/25 00:08:07;;;;;;;33.40;24.70;;;;;;;3.52;85.02;96338.79;108160;1273;68819;-74
2021/12/25 00:10:38;;;;;;;38.10;27.10;;;;;;;3.56;84.83;96347.17;108082;1273;69251;-73
2021/12/25 00:13:10;;;;;;;27.00;19.60;;;;;;;3.57;84.41;96345.36;108102;1272;58979;-72
2021/12/25 00:15:42;;;;;;;21.60;15.10;;;;;;;3.59;84.64;96343.52;108119;1273;58902;-71
2021/12/25 00:18:14;;;;;;;29.10;23.00;;;;;;;3.65;84.69;96345.60;108249;1274;70031;-71
2021/12/25 00:20:47;;;;;;;24.30;18.70;;;;;;;3.67;84.60;96338.73;108151;1273;67970;-70
2021/12/25 00:23:24;;;;;;;20.00;14.70;;;;;;;3.69;84.54;96341.36;108092;1274;69527;-68
2021/12/25 00:26:02;;;;;;;23.10;16.70;;;;;;;3.70;84.39;96343.55;108130;1270;58952;-72
2021/12/25 00:28:50;;;;;;;20.60;14.80;;;;;;;3.70;84.16;96344.95;107916;1274;59773;-66
2021/12/25 00:31:30;;;;;;;17.50;12.90;;;;;;;3.70;84.42;96347.16;108189;1274;70141;-71
2021/12/25 00:34:04;;;;;;;19.20;13.80;;;;;;;3.75;84.45;96349.98;108192;1273;68446;-72
2021/12/25 00:36:37;;;;;;;27.90;19.70;;;;;;;3.78;84.58;96352.50;108221;1273;69244;-72
2021/12/25 00:39:09;;;;;;;22.20;17.20;;;;;;;3.81;84.93;96355.25;108256;1271;58924;-66
2021/12/25 00:41:40;;;;;;;18.80;15.10;;;;;;;3.85;84.50;96354.52;108165;1273;58891;-72
2021/12/25 00:44:11;;;;;;;20.50;15.00;;;;;;;3.88;85.22;96355.17;108220;1273;70719;-73
2021/12/25 00:46:43;;;;;;;18.30;14.30;;;;;;;3.92;84.76;96353.20;107912;1274;68137;-73
2021/12/25 00:49:15;;;;;;;13.90;9.50;;;;;;;3.94;84.40;96360.02;108147;1274;69089;-72
2021/12/25 00:51:47;;;;;;;24.30;17.50;;;;;;;3.96;84.06;96355.52;108350;1273;58951;-66
2021/12/25 00:54:20;;;;;;;23.10;15.70;;;;;;;3.94;84.03;96360.48;108144;1269;58963;-70
2021/12/25 00:56:52;;;;;;;20.60;13.50;;;;;;;3.95;83.98;96360.47;108288;1273;70609;-72
2021/12/25 00:59:22;;;;;;;22.50;16.40;;;;;;;3.96;83.85;96353.80;108010;1270;67957;-72
2021/12/25 01:01:54;;;;;;;28.00;19.40;;;;;;;3.94;83.98;96353.09;108050;1273;69322;-65
2021/12/25 01:04:27;;;;;;;18.50;14.00;;;;;;;3.89;83.91;96349.42;108191;1273;58958;-73
2021/12/25 01:06:58;;;;;;;30.40;21.50;;;;;;;3.90;83.80;96337.65;108123;1272;58873;-72
2021/12/25 01:09:29;;;;;;;29.70;20.20;;;;;;;3.91;83.67;96337.09;108147;1274;71077;-73
2021/12/25 01:12:03;;;;;;;32.50;22.60;;;;;;;3.82;83.80;96351.93;108181;1269;68639;-72
2021/12/25 01:14:42;;;;;;;30.30;22.40;;;;;;;3.76;83.95;96357.45;108210;1273;68646;-71
2021/12/25 01:35:10;;;;;;;19.70;14.30;;;;;;;3.71;83.79;96328.81;108213;1275;58926;-73
2021/12/25 01:47:47;;;;;;;16.90;14.60;;;;;;;3.56;83.83;96332.69;108192;1273;58817;-70
2021/12/25 01:50:26;;;;;;;24.00;16.70;;;;;;;3.56;83.77;96335.64;108049;1272;58891;-68
2021/12/25 01:52:57;;;;;;;20.80;16.60;;;;;;;3.56;83.80;96333.59;108095;1275;70026;-68
2021/12/25 01:55:29;;;;;;;21.20;16.60;;;;;;;3.56;83.74;96341.50;108170;1272;67999;-70
2021/12/25 01:58:01;;;;;;;23.20;17.80;;;;;;;3.57;84.25;96340.88;108216;1271;68267;-70
2021/12/25 02:00:32;;;;;;;19.30;15.40;;;;;;;3.58;84.16;96345.52;108123;1275;59282;-69
2021/12/25 02:03:05;;;;;;;17.00;12.60;;;;;;;3.58;84.04;96346.50;108163;1273;58871;-68
2021/12/25 02:05:35;;;;;;;15.50;12.00;;;;;;;3.62;83.97;96348.54;108047;1275;69949;-70
2021/12/25 02:08:24;;;;;;;19.10;14.70;;;;;;;3.67;84.26;96351.35;108086;1272;67977;-70
2021/12/25 02:10:55;;;;;;;17.20;13.50;;;;;;;3.69;84.20;96349.80;108111;1272;69550;-68
2021/12/25 02:13:25;;;;;;;14.50;11.80;;;;;;;3.72;84.63;96343.29;108063;1275;58890;-66
2021/12/25 02:15:57;;;;;;;9.40;7.50;;;;;;;3.75;84.73;96339.29;108235;1272;58973;-68
2021/12/25 02:18:54;;;;;;;16.90;12.80;;;;;;;3.78;85.05;96337.50;108137;1275;69957;-67
2021/12/25 02:21:37;;;;;;;15.10;12.50;;;;;;;3.82;84.81;96344.33;108147;1275;67852;-66
2021/12/25 02:24:11;;;;;;;15.70;11.30;;;;;;;3.86;84.48;96347.41;108107;1272;69432;-69
2021/12/25 02:26:44;;;;;;;12.40;10.20;;;;;;;3.88;84.47;96352.95;108134;1272;58947;-70
2021/12/25 02:29:14;;;;;;;11.40;8.30;;;;;;;3.91;84.47;96353.24;108092;1274;58896;-67
2021/12/25 02:31:43;;;;;;;7.90;6.70;;;;;;;3.94;84.49;96356.52;108149;1272;70907;-70
2021/12/25 02:34:14;;;;;;;13.60;12.20;;;;;;;3.98;84.34;96354.23;108048;1272;67734;-71
2021/12/25 02:36:45;;;;;;;12.60;8.20;;;;;;;3.99;84.38;96357.26;108098;1275;67779;-67
2021/12/25 02:39:15;;;;;;;11.80;8.70;;;;;;;4.00;84.45;96363.52;108121;1272;59024;-72
2021/12/25 02:41:44;;;;;;;11.90;9.70;;;;;;;4.03;84.05;96357.70;108119;1275;58853;-67
2021/12/25 02:44:14;;;;;;;11.90;10.50;;;;;;;4.04;84.16;96354.50;108143;1272;70612;-69
2021/12/25 02:46:48;;;;;;;13.30;10.20;;;;;;;4.05;84.02;96354.96;108059;1272;68123;-72
2021/12/25 02:49:18;;;;;;;9.70;8.40;;;;;;;4.07;84.03;96355.02;108054;1272;69507;-69
2021/12/25 02:51:48;;;;;;;;;;;;;;;4.08;84.34;96353.25;108222;1272;58861;-71
2021/12/25 02:54:17;;;;;;;11.80;9.40;;;;;;;4.08;84.48;96352.02;108086;1274;59018;-69
2021/12/25 02:56:47;;;;;;;14.20;11.50;;;;;;;4.09;84.29;96352.45;108022;1274;69861;-67
2021/12/25 02:59:17;;;;;;;16.70;13.30;;;;;;;4.10;83.96;96349.48;108015;1272;68814;-69
2021/12/25 03:02:08;;;;;;;12.50;9.50;;;;;;;4.10;83.73;96345.19;107734;1272;572760;-68
2021/12/25 03:04:40;;;;;;;12.90;9.90;;;;;;;4.09;83.95;96349.56;108154;1273;58973;-70
2021/12/25 03:07:11;;;;;;;12.30;10.40;;;;;;;4.08;84.10;96352.51;108211;1272;58907;-69
2021/12/25 03:09:41;;;;;;;11.80;10.00;;;;;;;4.09;84.04;96352.83;108060;1275;68802;-74
2021/12/25 03:12:13;;;;;;;;;;;;;;;4.09;83.97;96360.19;108051;1272;67840;-73
2021/12/25 03:17:49;;;;;;;10.30;8.40;;;;;;;4.12;83.81;96367.16;107898;1278;59023;-73
2021/12/25 03:20:19;;;;;;;13.60;10.50;;;;;;;4.14;83.51;96364.23;107878;1274;58987;-70
2021/12/25 03:22:49;;;;;;;10.90;8.30;;;;;;;4.15;83.73;96368.63;107932;1272;70731;-67
2021/12/25 03:25:20;;;;;;;18.00;14.20;;;;;;;4.16;84.07;96371.70;107943;1273;68541;-71
2021/12/25 03:27:51;;;;;;;19.20;14.50;;;;;;;4.15;84.21;96369.55;107954;1275;70742;-68
2021/12/25 03:30:22;;;;;;;16.40;12.90;;;;;;;4.13;83.80;96368.80;107921;1271;58890;-69
2021/12/25 03:32:52;;;;;;;11.90;10.60;;;;;;;4.12;83.70;96367.85;107931;1272;58936;-67
2021/12/25 03:35:22;;;;;;;11.60;8.10;;;;;;;4.12;83.82;96363.52;107957;1274;69806;-69
2021/12/25 03:37:52;;;;;;;12.70;10.60;;;;;;;4.13;83.74;96367.77;107912;1272;67720;-67
2021/12/25 03:40:23;;;;;;;9.70;8.30;;;;;;;4.15;84.00;96370.58;107927;1274;68439;-67
2021/12/25 03:42:53;;;;;;;10.40;8.20;;;;;;;4.19;83.48;96370.12;107890;1274;58910;-70
2021/12/25 03:45:23;;;;;;;12.60;8.10;;;;;;;4.21;83.57;96368.11;107937;1274;58897;-72
2021/12/25 03:48:04;;;;;;;12.50;10.10;;;;;;;4.20;83.61;96366.23;107969;1274;70759;-73
2021/12/25 03:53:36;;;;;;;13.20;9.00;;;;;;;4.16;83.95;96365.70;107989;1272;69468;-69
2021/12/25 03:58:56;;;;;;;15.80;12.90;;;;;;;4.09;83.76;96373.16;108005;1266;58830;-69
2021/12/25 04:01:33;;;;;;;14.50;11.30;;;;;;;4.04;83.98;96378.65;107905;1273;70853;-66
2021/12/25 04:04:25;;;;;;;11.00;8.30;;;;;;;3.98;84.15;96373.66;107958;1274;68628;-69
2021/12/25 04:09:34;;;;;;;16.10;11.20;;;;;;;3.79;83.96;96373.46;107986;1272;58891;-68
2021/12/25 04:12:13;;;;;;;15.60;13.30;;;;;;;3.71;83.91;96374.88;107975;1272;58979;-67
2021/12/25 04:14:44;;;;;;;15.90;12.70;;;;;;;3.61;83.91;96375.27;107942;1275;70752;-67
2021/12/25 04:17:15;;;;;;;16.60;13.70;;;;;;;3.54;84.08;96382.45;107910;1272;67807;-67
2021/12/25 04:19:44;;;;;;;19.20;15.40;;;;;;;3.48;84.05;96380.37;108075;1271;69452;-67
2021/12/25 04:22:19;;;;;;;20.60;16.00;;;;;;;3.45;84.19;96376.98;108048;1272;58960;-71
2021/12/25 04:24:51;;;;;;;12.20;10.00;;;;;;;3.45;84.46;96378.19;107948;1275;58911;-71
2021/12/25 04:27:21;;;;;;;12.50;11.10;;;;;;;3.47;84.59;96383.58;108107;1269;70591;-72
2021/12/25 04:30:02;;;;;;;11.20;9.70;;;;;;;3.50;84.72;96389.43;107975;1272;67909;-68
2021/12/25 04:49:43;;;;;;;16.40;12.20;;;;;;;3.58;85.18;96382.87;107982;1272;58961;-68
2021/12/25 05:05:57;;;;;;;16.90;12.20;;;;;;;3.49;85.53;96400.69;108041;1270;58917;-74
2021/12/25 05:08:34;;;;;;;11.50;8.90;;;;;;;3.50;85.41;96403.51;108036;1269;70250;-73
2021/12/25 05:11:04;;;;;;;10.80;8.50;;;;;;;3.52;84.96;96394.77;108046;1271;68794;-74
2021/12/25 05:13:35;;;;;;;16.40;12.10;;;;;;;3.58;84.89;96388.90;108052;1270;68425;-67
2021/12/25 05:16:05;;;;;;;22.50;16.00;;;;;;;3.57;84.85;96401.92;107909;1272;58871;-73
2021/12/25 05:18:34;;;;;;;;;;;;;;;3.50;84.77;96406.27;108084;1272;58976;-71
2021/12/25 05:21:04;;;;;;;22.30;15.90;;;;;;;3.45;84.98;96412.09;108027;1272;70625;-70
2021/12/25 05:23:37;;;;;;;21.30;14.90;;;;;;;3.42;85.08;96406.41;108014;1272;67641;-70
2021/12/25 05:26:07;;;;;;;15.10;12.40;;;;;;;3.44;85.01;96409.77;108055;1269;70678;-67
2021/12/25 05:28:42;;;;;;;16.00;12.00;;;;;;;3.49;84.94;96399.30;107956;1274;58995;-67
2021/12/25 05:31:15;;;;;;;19.90;15.60;;;;;;;3.52;84.95;96407.17;107915;1274;58904;-67
2021/12/25 05:34:08;;;;;;;16.60;12.10;;;;;;;3.51;84.99;96411.05;107937;1272;70034;-70
2021/12/25 05:36:56;;;;;;;19.80;15.40;;;;;;;3.51;84.91;96410.73;108032;1269;68327;-66
2021/12/25 05:39:50;;;;;;;12.20;9.20;;;;;;;3.45;84.82;96406.23;107938;1270;68687;-65
2021/12/25 05:42:24;;;;;;;16.20;11.70;;;;;;;3.49;84.94;96407.92;107986;1272;59004;-68
2021/12/25 05:44:54;;;;;;;17.20;12.40;;;;;;;3.46;85.03;96409.45;107900;1273;58914;-68
2021/12/25 05:47:27;;;;;;;12.80;10.00;;;;;;;3.40;84.78;96416.02;107990;1271;69968;-67
2021/12/25 05:50:15;;;;;;;16.80;13.10;;;;;;;3.31;84.85;96423.27;108034;1269;67833;-67
2021/12/25 05:52:57;;;;;;;19.60;15.90;;;;;;;3.25;84.79;96421.05;108031;1269;68644;-72
2021/12/25 05:55:30;;;;;;;16.80;11.80;;;;;;;3.18;85.01;96422.36;107994;1271;58901;-65
2021/12/25 05:58:03;;;;;;;14.70;10.40;;;;;;;3.15;85.00;96419.42;108070;1269;58892;-73
2021/12/25 06:00:39;;;;;;;20.30;15.20;;;;;;;3.15;85.23;96424.22;108005;1269;69947;-72
2021/12/25 06:03:10;;;;;;;15.00;11.10;;;;;;;3.16;85.42;96430.91;107990;1272;67849;-64
2021/12/25 06:05:41;;;;;;;13.30;10.90;;;;;;;3.18;85.35;96433.33;107981;1270;69487;-66
2021/12/25 06:08:11;;;;;;;13.00;11.40;;;;;;;3.21;85.26;96432.98;108075;1271;58964;-65
2021/12/25 06:10:42;;;;;;;17.00;13.70;;;;;;;3.26;85.08;96427.89;107915;1271;58880;-67
2021/12/25 06:13:16;;;;;;;15.80;12.40;;;;;;;3.26;85.08;96431.30;107943;1272;71351;-69
2021/12/25 06:15:47;;;;;;;19.00;14.70;;;;;;;3.26;85.05;96433.72;108076;1272;68726;-69
2021/12/25 06:18:24;;;;;;;11.70;8.40;;;;;;;3.26;85.03;96440.80;108199;1269;69481;-67
2021/12/25 06:21:02;;;;;;;17.60;13.50;;;;;;;3.31;84.78;96445.34;108035;1272;58923;-68
2021/12/25 06:24:07;;;;;;;19.60;14.10;;;;;;;3.31;84.77;96449.27;108083;1272;58845;-68
2021/12/25 06:26:54;;;;;;;12.10;9.20;;;;;;;3.33;84.95;96458.30;108137;1273;70774;-68
2021/12/25 06:29:52;;;;;;;13.40;9.50;;;;;;;3.43;84.81;96467.86;107959;1272;68030;-65
2021/12/25 06:32:42;;;;;;;;;;;;;;;3.48;85.09;96476.35;108005;1272;69480;-67
2021/12/25 06:35:45;;;;;;;12.80;9.10;;;;;;;3.52;85.29;96477.83;107868;1272;58984;-73
2021/12/25 06:38:40;;;;;;;20.40;14.90;;;;;;;3.60;84.94;96476.88;108055;1271;58893;-69
2021/12/25 06:41:14;;;;;;;14.20;10.70;;;;;;;3.57;84.26;96480.79;108129;1270;70125;-66
2021/12/25 06:43:46;;;;;;;14.20;12.60;;;;;;;3.58;84.32;96483.86;108137;1271;68790;-71
2021/12/25 06:46:28;;;;;;;8.30;6.60;;;;;;;3.61;84.56;96484.59;107968;1273;69234;-66
2021/12/25 06:48:58;;;;;;;21.20;13.80;;;;;;;3.65;84.23;96481.41;108095;1269;58890;-65
2021/12/25 06:51:47;;;;;;;24.20;17.80;;;;;;;3.69;84.00;96476.86;107848;1273;58939;-69
2021/12/25 06:54:46;;;;;;;22.20;16.40;;;;;;;3.70;83.91;96478.31;107677;1274;71378;-68
2021/12/25 06:57:51;;;;;;;29.00;21.00;;;;;;;3.71;83.73;96463.43;107923;1271;67877;-66
2021/12/25 07:00:23;;;;;;;26.40;20.70;;;;;;;3.74;83.99;96470.85;108228;1270;69279;-68
2021/12/25 07:02:55;;;;;;;18.90;14.50;;;;;;;3.78;83.85;96478.15;108128;1269;58969;-66
2021/12/25 07:05:42;;;;;;;18.90;14.40;;;;;;;3.80;83.52;96481.52;108063;1273;58917;-69
2021/12/25 07:08:44;;;;;;;13.20;11.00;;;;;;;3.78;83.34;96496.75;107790;1270;70493;-71
2021/12/25 07:11:52;;;;;;;19.10;14.30;;;;;;;3.75;83.61;96507.66;108159;1269;68645;-75
2021/12/25 07:14:54;;;;;;;20.80;16.40;;;;;;;3.74;83.62;96512.91;108130;1269;69334;-69
2021/12/25 07:18:02;;;;;;;16.40;13.70;;;;;;;3.72;83.78;96516.79;107876;1273;58885;-75
2021/12/25 07:20:48;;;;;;;16.00;12.00;;;;;;;3.74;84.47;96511.98;108302;1269;58941;-72
2021/12/25 07:23:36;;;;;;;28.30;21.30;;;;;;;3.79;84.30;96508.95;108249;1269;70881;-77
2021/12/25 07:26:19;;;;;;;40.10;27.70;;;;;;;3.82;83.53;96506.91;108227;1272;68667;-78
2021/12/25 07:29:14;;;;;;;94.00;59.30;;;;;;;3.76;83.08;96512.73;108258;1269;70155;-70
2021/12/25 07:31:44;;;;;;;75.50;46.90;;;;;;;3.71;82.88;96515.33;108053;1269;58874;-71
2021/12/25 07:34:14;;;;;;;61.80;43.00;;;;;;;3.67;82.56;96517.80;108098;1271;59030;-72
2021/12/25 07:36:43;;;;;;;37.20;23.40;;;;;;;3.60;82.63;96518.53;108076;1269;70921;-69
2021/12/25 07:39:16;;;;;;;29.40;18.60;;;;;;;3.61;82.81;96519.54;108032;1270;69287;-70
2021/12/25 07:41:45;;;;;;;62.10;40.60;;;;;;;3.64;82.84;96516.73;107992;1270;70021;-71
2021/12/25 07:44:26;;;;;;;26.30;19.20;;;;;;;3.64;82.90;96510.41;108097;1271;58983;-72
2021/12/25 07:47:00;;;;;;;42.10;31.00;;;;;;;3.71;82.90;96508.61;108024;1269;58945;-73
2021/12/25 07:49:32;;;;;;;48.30;35.10;;;;;;;3.74;82.87;96509.77;108031;1270;70012;-72
2021/12/25 07:52:05;;;;;;;58.00;40.40;;;;;;;3.79;82.85;96505.51;107973;1271;66965;-71
2021/12/25 07:54:34;;;;;;;62.80;43.30;;;;;;;3.82;83.02;96508.25;108022;1273;68642;-68
2021/12/25 07:57:04;;;;;;;66.60;43.40;;;;;;;3.88;83.34;96517.76;108032;1272;58939;-67
2021/12/25 07:59:35;;;;;;;47.40;34.00;;;;;;;3.95;83.09;96523.69;107858;1271;58904;-67
2021/12/25 08:02:05;;;;;;;60.00;39.40;;;;;;;4.00;83.03;96512.35;107907;1271;70303;-67
2021/12/25 08:04:34;;;;;;;58.40;39.50;;;;;;;4.08;83.03;96509.79;108032;1272;67863;-69
2021/12/25 08:07:04;;;;;;;39.80;29.90;;;;;;;4.21;83.16;96518.14;107888;1274;69648;-71
2021/12/25 08:09:33;;;;;;;32.50;22.50;;;;;;;4.37;83.12;96525.08;108101;1272;58933;-70
2021/12/25 08:12:03;;;;;;;42.70;29.00;;;;;;;4.53;82.92;96523.52;107847;1274;58921;-67
2021/12/25 08:14:34;;;;;;;76.40;50.40;;;;;;;4.64;82.24;96524.41;108053;1271;71359;-72
2021/12/25 08:17:05;;;;;;;50.60;33.90;;;;;;;4.72;82.24;96524.61;108012;1271;68562;-70
2021/12/25 08:19:53;;;;;;;92.60;60.00;;;;;;;4.82;81.97;96520.87;108023;1270;67453;-71
2021/12/25 08:22:42;;;;;;;77.50;55.50;;;;;;;4.85;81.70;96531.73;107951;1271;58970;-68
2021/12/25 08:25:29;;;;;;;60.00;40.60;;;;;;;4.88;81.76;96529.28;107902;1272;58971;-68
2021/12/25 08:28:17;;;;;;;65.80;46.80;;;;;;;4.86;81.50;96538.05;107992;1271;70604;-66
2021/12/25 08:31:25;;;;;;;48.80;40.20;;;;;;;4.82;81.79;96548.69;107604;1278;68932;-70
2021/12/25 08:34:12;;;;;;;51.30;36.40;;;;;;;4.83;81.83;96547.52;107565;1275;68626;-66
2021/12/25 08:37:08;;;;;;;52.00;37.70;;;;;;;4.86;81.88;96539.77;107909;1271;58957;-69
2021/12/25 08:39:37;;;;;;;62.50;44.60;;;;;;;4.90;82.12;96546.45;108049;1272;58842;-66
2021/12/25 08:42:09;;;;;;;62.40;42.40;;;;;;;4.91;81.95;96548.77;107959;1271;69797;-65
2021/12/25 08:44:51;;;;;;;51.70;37.40;;;;;;;4.91;82.03;96566.78;107925;1271;69182;-68
2021/12/25 08:47:29;;;;;;;53.50;41.40;;;;;;;4.90;82.32;96577.32;108170;1271;70187;-65
2021/12/25 08:50:08;;;;;;;63.40;44.20;;;;;;;4.88;82.58;96574.02;108162;1271;58955;-65
2021/12/25 08:52:42;;;;;;;55.50;42.40;;;;;;;4.88;82.28;96567.47;107920;1272;58923;-67
2021/12/25 08:55:14;;;;;;;72.60;51.50;;;;;;;4.84;82.14;96561.97;108089;1272;71012;-65
2021/12/25 08:57:46;;;;;;;93.20;68.10;;;;;;;4.81;82.09;96563.37;107967;1272;68700;-67
2021/12/25 09:00:16;;;;;;;59.50;41.70;;;;;;;4.79;82.40;96563.83;107938;1272;69454;-64
2021/12/25 09:02:49;;;;;;;61.30;43.00;;;;;;;4.84;82.40;96560.59;108152;1271;58956;-67
2021/12/25 09:05:21;;;;;;;49.70;35.50;;;;;;;4.91;82.68;96557.61;108086;1272;58955;-64
2021/12/25 09:07:54;;;;;;;51.30;35.40;;;;;;;4.98;82.25;96548.86;108149;1271;70793;-65
2021/12/25 09:10:28;;;;;;;46.30;36.00;;;;;;;5.02;82.02;96541.85;108067;1272;68633;-68
2021/12/25 09:12:59;;;;;;;77.50;53.20;;;;;;;5.08;82.24;96539.55;107987;1272;69409;-69
2021/12/25 09:15:28;;;;;;;65.50;47.40;;;;;;;5.19;82.41;96543.02;107986;1271;58914;-72
2021/12/25 09:17:58;;;;;;;;;;;;;;;5.36;82.18;96537.42;107960;1272;58955;-66
2021/12/25 09:20:31;;;;;;;36.80;24.40;;;;;;;5.66;82.35;96529.67;107922;1272;70679;-68
2021/12/25 09:23:01;;;;;;;32.80;25.10;;;;;;;6.29;81.38;96524.89;108029;1272;68605;-72
2021/12/25 09:25:32;;;;;;;24.20;18.90;;;;;;;6.83;80.23;96525.56;108081;1271;69406;-70
2021/12/25 09:28:04;;;;;;;34.60;28.10;;;;;;;7.93;78.17;96519.38;108096;1272;58941;-67
2021/12/25 09:30:36;;;;;;;28.70;23.50;;;;;;;8.77;75.65;96515.23;107989;1271;58866;-70
2021/12/25 09:33:07;;;;;;;30.70;24.70;;;;;;;10.06;72.90;96505.50;108100;1271;70576;-68
2021/12/25 09:35:37;;;;;;;33.10;27.50;;;;;;;11.67;70.54;96511.39;108010;1274;68629;-64
2021/12/25 09:38:08;;;;;;;27.00;22.30;;;;;;;13.31;67.56;96520.16;108049;1270;69492;-65
2021/12/25 09:40:38;;;;;;;32.30;28.10;;;;;;;14.68;66.08;96517.12;108049;1271;59167;-71
2021/12/25 09:43:13;;;;;;;27.00;22.40;;;;;;;15.26;62.88;96517.48;107961;1271;58952;-67
2021/12/25 09:45:44;;;;;;;23.50;20.90;;;;;;;16.00;62.07;96515.94;108108;1271;71057;-71
2021/12/25 09:48:13;;;;;;;18.30;15.60;;;;;;;17.30;58.06;96512.08;108085;1271;67691;-70
2021/12/25 09:50:43;;;;;;;19.80;17.50;;;;;;;18.53;54.54;96506.97;108120;1269;69631;-73
2021/12/25 09:53:15;;;;;;;18.80;16.10;;;;;;;18.71;52.92;96505.84;108174;1269;58942;-71
2021/12/25 09:55:47;;;;;;;32.50;28.20;;;;;;;17.98;49.29;96507.48;108133;1269;59288;-71
2021/12/25 09:58:16;;;;;;;29.20;24.30;;;;;;;17.05;48.18;96507.42;108068;1269;69786;-66
2021/12/25 10:00:47;;;;;;;14.40;12.90;;;;;;;16.29;53.97;96500.56;108130;1270;68541;-73
2021/12/25 10:03:40;;;;;;;13.90;12.00;;;;;;;15.36;53.51;96488.35;108141;1271;69469;-69
2021/12/25 10:06:09;;;;;;;13.20;11.30;;;;;;;14.74;54.59;96489.41;108227;1270;59148;-71
2021/12/25 10:08:39;;;;;;;15.10;12.20;;;;;;;14.83;55.55;96501.23;107947;1272;58958;-73
2021/12/25 10:11:09;;;;;;;13.50;11.60;;;;;;;15.04;56.44;96500.14;108190;1269;71281;-71
2021/12/25 10:13:40;;;;;;;;;;;;;;;15.19;56.62;96495.04;108198;1271;68716;-72
2021/12/25 10:16:28;;;;;;;12.90;11.60;;;;;;;14.96;54.42;96496.27;108189;1272;69480;-66
2021/12/25 10:19:20;;;;;;;15.30;13.70;;;;;;;14.10;54.56;96494.09;108095;1271;58945;-67
2021/12/25 10:22:05;;;;;;;29.60;23.90;;;;;;;13.32;57.43;96499.29;108215;1269;58876;-72
2021/12/25 10:24:47;;;;;;;22.10;17.50;;;;;;;12.71;59.13;96498.33;108085;1271;70341;-70
2021/12/25 10:27:20;;;;;;;21.50;16.50;;;;;;;12.48;60.35;96493.20;108149;1269;68958;-75
2021/12/25 10:29:59;;;;;;;17.40;13.50;;;;;;;12.41;61.01;96477.98;108171;1269;69451;-74
2021/12/25 10:32:28;;;;;;;15.00;12.30;;;;;;;12.47;61.55;96477.38;108225;1271;58906;-67
2021/12/25 10:34:58;;;;;;;13.70;11.90;;;;;;;12.62;62.00;96475.44;108147;1269;58888;-70
2021/12/25 10:37:27;;;;;;;14.40;12.10;;;;;;;12.95;61.80;96465.40;108201;1269;71447;-71
2021/12/25 10:39:56;;;;;;;11.50;10.30;;;;;;;13.19;61.06;96448.92;108193;1269;67802;-68
2021/12/25 10:42:33;;;;;;;10.90;9.40;;;;;;;13.31;60.47;96453.19;108024;1273;69576;-70
2021/12/25 10:45:05;;;;;;;8.00;6.60;;;;;;;13.57;59.75;96467.92;108123;1269;58878;-72
2021/12/25 10:47:35;;;;;;;7.60;6.40;;;;;;;13.88;59.41;96471.98;108176;1269;59426;-74
2021/12/25 10:50:18;;;;;;;7.70;6.10;;;;;;;14.53;58.76;96466.90;108179;1268;70856;-70
2021/12/25 10:52:51;;;;;;;5.30;4.70;;;;;;;14.75;56.89;96464.91;108092;1273;69024;-76
2021/12/25 10:55:27;;;;;;;5.60;4.40;;;;;;;14.62;57.94;96466.85;107983;1269;67887;-77
2021/12/25 10:57:59;;;;;;;5.70;5.10;;;;;;;14.36;56.72;96465.80;107900;1271;59229;-75
2021/12/25 11:00:36;;;;;;;6.10;4.80;;;;;;;14.05;57.70;96457.86;108207;1272;58903;-75
2021/12/25 11:03:14;;;;;;;7.50;5.80;;;;;;;13.72;58.22;96461.17;104520;1270;70105;-74
2021/12/25 11:05:45;;;;;;;7.00;6.20;;;;;;;13.42;59.74;96454.16;108190;1271;70052;-74
2021/12/25 11:08:21;;;;;;;20.40;16.20;;;;;;;13.07;60.35;96463.41;108147;1271;58880;-71
2021/12/25 11:11:01;;;;;;;11.90;10.30;;;;;;;12.70;60.83;96462.02;108190;1269;58949;-72
2021/12/25 11:13:36;;;;;;;;;;;;;;;12.29;61.02;96461.13;108113;1270;70164;-75
2021/12/25 11:16:16;;;;;;;17.60;13.60;;;;;;;11.98;62.25;96458.08;108203;1269;68396;-72
2021/12/25 11:19:12;;;;;;;31.10;25.40;;;;;;;11.75;62.88;96449.95;108169;1271;68684;-74
2021/12/25 11:21:45;;;;;;;37.70;31.10;;;;;;;11.49;63.54;96442.88;108259;1269;58892;-74
2021/12/25 11:24:25;;;;;;;35.00;27.30;;;;;;;11.33;64.14;96435.08;108187;1269;58850;-64
2021/12/25 11:26:57;;;;;;;32.90;26.70;;;;;;;11.20;64.51;96432.78;108092;1269;70208;-67
2021/12/25 11:29:32;;;;;;;31.30;25.90;;;;;;;11.12;65.08;96435.06;108095;1269;69278;-66
2021/12/25 11:32:08;;;;;;;27.10;23.40;;;;;;;11.11;65.29;96433.29;108294;1269;68451;-74
2021/12/25 11:34:39;;;;;;;36.70;28.90;;;;;;;11.25;65.20;96427.98;108117;1269;58887;-72
2021/12/25 11:37:08;;;;;;;35.80;23.10;;;;;;;11.37;64.82;96421.84;108121;1271;58955;-75
2021/12/25 11:39:51;;;;;;;26.20;20.30;;;;;;;11.41;64.54;96422.48;108058;1272;70555;-69
2021/12/25 11:42:27;;;;;;;19.20;14.20;;;;;;;11.39;64.37;96420.63;108119;1269;69238;-66
2021/12/25 11:45:11;;;;;;;20.40;14.40;;;;;;;11.32;64.72;96417.38;108197;1271;69978;-66
2021/12/25 11:47:51;;;;;;;15.40;12.80;;;;;;;11.25;64.72;96418.73;108090;1269;58881;-68
2021/12/25 11:50:28;;;;;;;13.20;9.90;;;;;;;11.13;65.06;96420.84;108130;1269;58923;-66
2021/12/25 11:53:14;;;;;;;35.00;26.90;;;;;;;11.02;65.66;96421.18;108130;1268;70810;-68
2021/12/25 11:58:41;;;;;;;20.90;16.80;;;;;;;10.81;66.43;96419.58;108088;1270;68890;-65
2021/12/25 12:01:39;;;;;;;21.00;16.70;;;;;;;10.71;66.57;96417.17;108086;1269;58940;-66
2021/12/25 12:04:16;;;;;;;25.90;22.10;;;;;;;10.57;66.97;96417.39;108166;1269;58969;-68
2021/12/25 12:06:45;;;;;;;18.60;15.50;;;;;;;10.38;67.53;96414.02;108058;1270;70162;-65
2021/12/25 12:09:21;;;;;;;20.10;17.40;;;;;;;10.22;67.83;96415.05;108182;1269;68154;-68
2021/12/25 12:12:18;;;;;;;21.70;17.60;;;;;;;10.06;68.20;96413.27;107936;1271;70819;-66
2021/12/25 12:15:08;;;;;;;12.60;10.50;;;;;;;9.97;68.49;96412.31;108064;1270;59313;-69
2021/12/25 12:17:56;;;;;;;15.60;12.70;;;;;;;9.89;68.55;96403.05;108101;1271;58900;-72
2021/12/25 12:20:40;;;;;;;19.50;16.00;;;;;;;9.84;68.75;96401.39;107980;1271;71355;-65
2021/12/25 12:23:46;;;;;;;20.30;15.70;;;;;;;9.77;69.02;96397.88;108113;1269;68700;-68
2021/12/25 12:26:44;;;;;;;19.80;15.50;;;;;;;9.72;69.22;96393.21;108111;1271;69903;-65
2021/12/25 12:29:34;;;;;;;17.00;12.80;;;;;;;9.67;69.72;96393.12;108109;1269;58946;-63
2021/12/25 12:32:26;;;;;;;24.30;20.30;;;;;;;9.62;69.91;96392.64;108206;1269;58855;-69
2021/12/25 12:34:56;;;;;;;17.30;15.20;;;;;;;9.56;70.26;96389.88;108018;1269;69186;-75
2021/12/25 12:37:28;;;;;;;19.30;15.90;;;;;;;9.51;70.78;96390.46;107976;1271;69099;-73
2021/12/25 12:39:59;;;;;;;24.60;19.60;;;;;;;9.46;70.69;96390.92;108013;1271;68661;-69
2021/12/25 12:42:48;;;;;;;20.80;16.90;;;;;;;9.38;71.03;96391.23;108013;1271;58883;-74
2021/12/25 12:45:29;;;;;;;29.60;23.10;;;;;;;9.33;71.03;96389.70;108172;1269;58892;-66
2021/12/25 12:48:08;;;;;;;;;;;;;;;9.30;71.32;96386.66;108150;1269;71775;-72
2021/12/25 12:50:39;;;;;;;25.90;20.40;;;;;;;9.29;71.53;96381.52;108119;1269;68745;-71
2021/12/25 12:53:09;;;;;;;19.80;13.90;;;;;;;9.27;71.81;96382.09;107960;1271;69506;-73
2021/12/25 12:55:42;;;;;;;21.00;16.00;;;;;;;9.22;71.80;96393.45;108122;1271;58955;-67
2021/12/25 12:58:17;;;;;;;19.10;14.70;;;;;;;9.18;71.88;96397.16;107979;1269;58962;-71
2021/12/25 13:00:59;;;;;;;19.90;14.80;;;;;;;9.20;71.96;96394.63;107998;1271;70881;-64
2021/12/25 13:03:29;;;;;;;29.50;23.80;;;;;;;9.21;72.29;96387.25;108120;1271;69251;-66
2021/12/25 13:06:10;;;;;;;25.80;21.80;;;;;;;9.15;72.47;96387.19;108155;1271;70140;-65
2021/12/25 13:08:41;;;;;;;26.30;20.50;;;;;;;9.06;72.50;96385.39;108119;1271;58911;-72
2021/12/25 13:11:30;;;;;;;25.80;22.00;;;;;;;9.02;72.71;96388.35;108063;1271;58882;-74
2021/12/25 13:14:03;;;;;;;24.50;19.40;;;;;;;8.96;73.37;96393.50;108165;1272;70156;-67